Time;durP1;ratioP1;P1;durP2;ratioP2;P2;SDS_P1;SDS_P2;PMS_P1;PMS_P2;Temp;Humidity;BMP_temperature;BMP_pressure;BME280_temperature;BME280_humidity;BME280_pressure;Samples;Min_cycle;Max_cycle;Signal;HPM_P1;HPM_P2
2021/12/31 00:01:33;;;;;;;;;;;;;;;26.43;58.75;97621.23;618755;229;67040;-73
2021/12/31 00:04:00;;;;;;;;;;;;;;;26.44;58.77;97624.75;618794;229;67199;-74
2021/12/31 00:06:28;;;;;;;;;;;;;;;26.43;58.57;97617.73;618779;229;65139;-73
2021/12/31 00:08:55;;;;;;;;;;;;;;;26.42;58.76;97619.64;618738;229;66994;-73
2021/12/31 00:11:23;;;;;;;;;;;;;;;26.42;58.60;97610.76;618718;229;66663;-73
2021/12/31 00:13:50;;;;;;;;;;;;;;;26.41;58.56;97614.53;618783;229;62833;-73
2021/12/31 00:16:18;;;;;;;;;;;;;;;26.41;58.96;97609.14;618852;229;64805;-73
2021/12/31 00:18:45;;;;;;;;;;;;;;;26.41;58.65;97603.75;618785;229;66744;-73
2021/12/31 00:21:13;;;;;;;;;;;;;;;26.39;59.02;97595.97;618787;229;64735;-73
2021/12/31 00:23:43;;;;;;;;;;;;;;;26.39;58.71;97589.78;618793;229;66757;-73
2021/12/31 00:26:09;;;;;;;;;;;;;;;26.38;58.95;97578.19;618745;228;71119;-73
2021/12/31 00:28:37;;;;;;;;;;;;;;;26.38;59.09;97577.39;618754;229;65030;-73
2021/12/31 00:31:04;;;;;;;;;;;;;;;26.37;58.61;97573.89;618844;229;67422;-73
2021/12/31 00:33:32;;;;;;;;;;;;;;;26.35;58.64;97563.43;618789;227;66915;-73
2021/12/31 00:35:59;;;;;;;;;;;;;;;26.36;58.75;97558.83;618777;229;64873;-73
2021/12/31 00:38:27;;;;;;;;;;;;;;;26.35;58.92;97557.22;618771;229;67073;-73
2021/12/31 00:40:54;;;;;;;;;;;;;;;26.35;59.02;97565.30;618778;229;64861;-73
2021/12/31 00:43:22;;;;;;;;;;;;;;;26.34;58.79;97566.41;618825;229;62754;-72
2021/12/31 00:45:49;;;;;;;;;;;;;;;26.34;58.85;97561.02;618808;229;65882;-73
2021/12/31 00:48:17;;;;;;;;;;;;;;;26.32;58.73;97557.80;618749;229;66951;-73
2021/12/31 00:50:44;;;;;;;;;;;;;;;26.31;58.85;97548.92;618250;229;65183;-73
2021/12/31 00:53:12;;;;;;;;;;;;;;;26.31;58.75;97540.05;617625;229;67053;-73
2021/12/31 00:55:39;;;;;;;;;;;;;;;26.30;59.19;97538.42;617691;229;66908;-73
2021/12/31 00:58:07;;;;;;;;;;;;;;;26.30;58.90;97541.12;617681;229;62727;-73
2021/12/31 01:00:35;;;;;;;;;;;;;;;26.28;58.99;97533.34;617651;229;64863;-73
2021/12/31 01:03:02;;;;;;;;;;;;;;;26.29;59.30;97520.67;617666;229;66923;-73
2021/12/31 01:05:30;;;;;;;;;;;;;;;26.27;59.76;97512.08;617625;229;64899;-73
2021/12/31 01:07:57;;;;;;;;;;;;;;;26.26;59.71;97516.67;617697;229;64814;-73
2021/12/31 01:10:27;;;;;;;;;;;;;;;26.26;59.68;97515.87;617692;229;64457;-73
2021/12/31 01:12:54;;;;;;;;;;;;;;;26.26;60.74;97511.28;617675;229;62759;-72
2021/12/31 01:15:46;;;;;;;;;;;;;;;26.24;59.83;97505.38;617680;229;67259;-73
2021/12/31 01:20:30;;;;;;;;;;;;;;;26.22;59.71;97493.30;617721;229;64969;-73
2021/12/31 01:22:58;;;;;;;;;;;;;;;26.23;59.48;97505.69;617737;229;65717;-73
2021/12/31 01:25:25;;;;;;;;;;;;;;;26.21;59.54;97502.48;617696;229;65692;-73
2021/12/31 01:27:53;;;;;;;;;;;;;;;26.21;60.67;97505.17;617698;229;65006;-73
2021/12/31 01:30:20;;;;;;;;;;;;;;;26.20;59.40;97508.97;617664;229;67022;-74
2021/12/31 01:32:48;;;;;;;;;;;;;;;26.19;59.54;97510.88;617691;229;67798;-74
2021/12/31 01:35:15;;;;;;;;;;;;;;;26.19;60.02;97499.27;617767;229;66125;-73
2021/12/31 01:37:43;;;;;;;;;;;;;;;26.17;61.64;97494.19;617704;229;66841;-74
2021/12/31 01:40:10;;;;;;;;;;;;;;;26.15;61.28;97503.66;617692;229;66996;-74
2021/12/31 01:42:38;;;;;;;;;;;;;;;26.15;60.89;97498.27;617686;229;65249;-73
2021/12/31 01:45:13;;;;;;;;;;;;;;;26.14;61.92;97508.25;617671;229;67295;-74
2021/12/31 01:50:27;;;;;;;;;;;;;;;26.12;61.96;97530.08;617696;229;64960;-72
2021/12/31 01:52:55;;;;;;;;;;;;;;;26.10;61.40;97545.72;617713;229;67049;-72
2021/12/31 01:55:24;;;;;;;;;;;;;;;26.11;60.40;97551.94;617671;229;66911;-72
2021/12/31 01:57:51;;;;;;;;;;;;;;;26.09;62.38;97559.50;617704;229;64859;-73
2021/12/31 02:00:19;;;;;;;;;;;;;;;26.09;61.16;97564.89;617740;229;66785;-73
2021/12/31 02:02:47;;;;;;;;;;;;;;;26.08;62.25;97571.34;617767;229;66753;-73
2021/12/31 02:05:15;;;;;;;;;;;;;;;26.07;63.29;97572.45;617713;229;64885;-73
2021/12/31 02:07:42;;;;;;;;;;;;;;;26.05;61.28;97582.70;617696;229;66763;-73
2021/12/31 02:10:10;;;;;;;;;;;;;;;26.05;60.87;97569.23;617720;229;66579;-73
2021/12/31 02:12:39;;;;;;;;;;;;;;;26.03;62.47;97566.84;617731;229;62780;-73
2021/12/31 02:15:07;;;;;;;;;;;;;;;26.03;62.77;97569.55;617734;229;66698;-73
2021/12/31 02:17:35;;;;;;;;;;;;;;;26.02;62.24;97561.74;617782;229;64822;-73
2021/12/31 02:20:05;;;;;;;;;;;;;;;26.03;62.50;97564.16;617700;229;66122;-73
2021/12/31 02:22:39;;;;;;;;;;;;;;;26.00;64.21;97561.22;617667;229;64436;-73
2021/12/31 02:25:07;;;;;;;;;;;;;;;25.99;62.80;97560.42;617720;229;64834;-73
2021/12/31 02:27:39;;;;;;;;;;;;;;;25.99;62.92;97562.33;617669;229;64881;-74
2021/12/31 02:30:09;;;;;;;;;;;;;;;25.98;64.30;97558.84;617531;228;67078;-72
2021/12/31 02:32:36;;;;;;;;;;;;;;;25.98;63.05;97571.50;617679;229;65211;-73
2021/12/31 02:35:04;;;;;;;;;;;;;;;25.97;62.21;97575.27;617637;229;62919;-73
2021/12/31 02:37:32;;;;;;;;;;;;;;;25.96;63.13;97579.06;617698;229;64848;-73
2021/12/31 02:40:01;;;;;;;;;;;;;;;25.95;63.36;97580.97;617638;229;66984;-73
2021/12/31 02:42:28;;;;;;;;;;;;;;;25.94;62.15;97583.94;617726;229;65162;-73
2021/12/31 02:44:56;;;;;;;;;;;;;;;25.93;63.29;97582.34;617756;229;67005;-73
2021/12/31 02:47:24;;;;;;;;;;;;;;;25.94;64.03;97583.94;617670;229;64858;-73
2021/12/31 02:49:52;;;;;;;;;;;;;;;25.91;63.53;97588.80;617674;229;62773;-73
2021/12/31 02:52:20;;;;;;;;;;;;;;;25.92;64.12;97605.78;617694;229;66921;-73
2021/12/31 02:54:49;;;;;;;;;;;;;;;25.91;62.81;97609.55;617674;229;66906;-73
2021/12/31 02:57:18;;;;;;;;;;;;;;;25.91;64.02;97606.86;617718;229;62830;-73
2021/12/31 02:59:46;;;;;;;;;;;;;;;25.88;64.70;97616.31;617696;229;67308;-74
2021/12/31 03:02:13;;;;;;;;;;;;;;;25.89;63.91;97619.80;617600;229;64475;-74
2021/12/31 03:04:42;;;;;;;;;;;;;;;25.88;64.11;97618.20;617657;229;63808;-73
2021/12/31 03:07:10;;;;;;;;;;;;;;;25.87;63.74;97609.33;617681;229;67002;-74
2021/12/31 03:09:43;;;;;;;;;;;;;;;25.85;64.11;97608.02;617717;229;64968;-74
2021/12/31 03:12:09;;;;;;;;;;;;;;;25.85;64.51;97616.89;617651;228;62763;-73
2021/12/31 03:14:38;;;;;;;;;;;;;;;25.82;65.33;97609.36;617673;229;64895;-73
2021/12/31 03:17:06;;;;;;;;;;;;;;;25.83;64.99;97610.16;617667;229;66914;-73
2021/12/31 03:19:33;;;;;;;;;;;;;;;25.81;65.20;97607.77;617705;229;64751;-73
2021/12/31 03:22:01;;;;;;;;;;;;;;;25.80;64.72;97605.35;617695;229;67127;-73
2021/12/31 03:24:29;;;;;;;;;;;;;;;25.81;65.82;97604.25;617739;229;66737;-73
2021/12/31 03:26:57;;;;;;;;;;;;;;;25.80;65.32;97605.35;617657;229;64990;-72
2021/12/31 03:29:24;;;;;;;;;;;;;;;25.77;63.86;97612.11;617664;229;67036;-72
2021/12/31 03:31:52;;;;;;;;;;;;;;;25.78;64.32;97624.50;617664;229;64842;-73
2021/12/31 03:34:20;;;;;;;;;;;;;;;25.79;63.83;97625.30;617680;229;66127;-73
2021/12/31 03:36:48;;;;;;;;;;;;;;;25.79;66.18;97627.98;617739;229;67033;-73
2021/12/31 03:39:15;;;;;;;;;;;;;;;25.76;64.87;97634.75;617697;229;67521;-73
2021/12/31 03:41:44;;;;;;;;;;;;;;;25.78;64.40;97635.27;617595;229;65084;-73
2021/12/31 03:44:12;;;;;;;;;;;;;;;25.76;63.72;97642.03;617697;229;64954;-73
2021/12/31 03:46:39;;;;;;;;;;;;;;;25.76;67.28;97639.34;617635;229;67188;-73
2021/12/31 03:49:07;;;;;;;;;;;;;;;25.74;65.37;97639.61;617726;229;64826;-73
2021/12/31 03:51:34;;;;;;;;;;;;;;;25.74;64.71;97654.97;617620;229;67114;-72
2021/12/31 03:54:02;;;;;;;;;;;;;;;25.72;66.99;97668.70;617679;229;66867;-73
2021/12/31 03:56:32;;;;;;;;;;;;;;;25.73;65.43;97659.55;617676;229;65165;-73
2021/12/31 03:59:03;;;;;;;;;;;;;;;25.70;65.31;97665.52;617678;228;67014;-73
2021/12/31 04:01:28;;;;;;;;;;;;;;;25.69;65.48;97653.13;617685;228;66916;-74
2021/12/31 04:03:56;;;;;;;;;;;;;;;25.68;65.69;97663.09;617689;229;62970;-73
2021/12/31 04:06:24;;;;;;;;;;;;;;;25.67;65.08;97660.67;617660;229;64726;-73
2021/12/31 04:08:51;;;;;;;;;;;;;;;25.68;67.62;97670.38;617648;229;64817;-73
2021/12/31 04:11:19;;;;;;;;;;;;;;;25.67;65.41;97666.89;617627;229;64918;-73
2021/12/31 04:13:47;;;;;;;;;;;;;;;25.66;65.69;97651.80;617702;229;67408;-74
2021/12/31 04:16:14;;;;;;;;;;;;;;;25.65;65.41;97647.52;617722;229;66975;-72
2021/12/31 04:18:42;;;;;;;;;;;;;;;25.68;65.51;97663.09;617645;229;65013;-72
2021/12/31 04:21:09;;;;;;;;;;;;;;;25.64;65.22;97662.05;617669;229;67099;-72
2021/12/31 04:23:48;;;;;;;;;;;;;;;25.66;66.78;97659.88;617659;229;66795;-72
2021/12/31 04:26:06;;;;;;;;;;;;;;;25.64;65.88;97661.25;617382;228;64884;-72
2021/12/31 04:28:33;;;;;;;;;;;;;;;25.62;65.68;97658.86;617735;229;64873;-72
2021/12/31 04:31:01;;;;;;;;;;;;;;;25.64;66.41;97655.87;617647;229;65673;-72
2021/12/31 04:33:28;;;;;;;;;;;;;;;25.63;65.61;97659.66;617666;229;65109;-72
2021/12/31 04:35:56;;;;;;;;;;;;;;;25.61;65.75;97661.83;617645;229;67009;-72
2021/12/31 04:38:23;;;;;;;;;;;;;;;25.59;65.74;97672.06;617649;229;65708;-72
2021/12/31 04:40:51;;;;;;;;;;;;;;;25.59;64.02;97666.69;617736;229;65192;-72
2021/12/31 04:43:18;;;;;;;;;;;;;;;25.61;66.77;97661.83;617671;229;67061;-73
2021/12/31 04:45:46;;;;;;;;;;;;;;;25.62;66.10;97663.45;617665;229;67014;-74
2021/12/31 04:48:13;;;;;;;;;;;;;;;25.57;64.55;97671.57;617646;229;64892;-73
2021/12/31 04:50:41;;;;;;;;;;;;;;;25.57;65.94;97674.27;617636;229;66957;-73
2021/12/31 04:53:08;;;;;;;;;;;;;;;25.55;65.19;97662.97;617750;229;67566;-73
2021/12/31 04:55:36;;;;;;;;;;;;;;;25.56;65.35;97664.56;617648;229;64909;-74
2021/12/31 04:58:03;;;;;;;;;;;;;;;25.55;64.92;97657.59;617696;229;64893;-74
2021/12/31 05:00:30;;;;;;;;;;;;;;;25.52;64.53;97658.96;617657;229;65497;-73
2021/12/31 05:02:59;;;;;;;;;;;;;;;25.53;64.86;97657.86;617723;229;64944;-73
2021/12/31 05:05:27;;;;;;;;;;;;;;;25.51;65.29;97645.78;617143;228;67947;-74
2021/12/31 05:07:54;;;;;;;;;;;;;;;25.51;65.70;97643.08;617699;229;65834;-74
2021/12/31 05:10:22;;;;;;;;;;;;;;;25.50;63.88;97652.25;617687;229;62820;-74
2021/12/31 05:12:54;;;;;;;;;;;;;;;25.50;64.63;97644.98;617667;229;67104;-73
2021/12/31 05:15:25;;;;;;;;;;;;;;;25.49;64.90;97645.28;617635;227;66887;-73
2021/12/31 05:17:48;;;;;;;;;;;;;;;25.46;64.15;97643.96;617579;228;64899;-74
2021/12/31 05:20:15;;;;;;;;;;;;;;;25.46;65.17;97636.69;617678;229;66820;-74
2021/12/31 05:22:42;;;;;;;;;;;;;;;25.46;64.94;97641.27;617621;229;66889;-73
2021/12/31 05:25:10;;;;;;;;;;;;;;;25.47;65.65;97640.17;617656;229;62692;-73
2021/12/31 05:27:38;;;;;;;;;;;;;;;25.45;65.77;97639.64;617720;229;65118;-73
2021/12/31 05:30:06;;;;;;;;;;;;;;;25.43;64.60;97644.53;617666;229;66940;-73
2021/12/31 05:32:33;;;;;;;;;;;;;;;25.43;66.39;97641.84;617662;229;65141;-74
2021/12/31 05:35:01;;;;;;;;;;;;;;;25.43;64.58;97639.95;617650;229;67182;-74
2021/12/31 05:37:28;;;;;;;;;;;;;;;25.43;63.98;97641.84;617687;229;67179;-74
2021/12/31 05:39:56;;;;;;;;;;;;;;;25.42;64.75;97635.63;617604;229;64876;-74
2021/12/31 05:42:23;;;;;;;;;;;;;;;25.42;63.59;97646.40;617678;229;67171;-74
2021/12/31 05:44:51;;;;;;;;;;;;;;;25.43;67.16;97641.84;617664;229;66916;-74
2021/12/31 05:47:18;;;;;;;;;;;;;;;25.40;64.36;97637.00;617672;229;64871;-74
2021/12/31 05:49:46;;;;;;;;;;;;;;;25.40;65.07;97643.21;617605;229;67277;-74
2021/12/31 05:52:14;;;;;;;;;;;;;;;25.38;63.43;97634.61;617696;229;64947;-75
2021/12/31 05:54:41;;;;;;;;;;;;;;;25.40;64.34;97645.91;617424;229;63622;-74
2021/12/31 05:57:09;;;;;;;;;;;;;;;25.40;66.61;97645.91;617643;229;67101;-74
2021/12/31 05:59:36;;;;;;;;;;;;;;;25.37;64.92;97638.41;617673;229;66865;-73
2021/12/31 06:02:04;;;;;;;;;;;;;;;25.38;64.88;97636.51;617486;229;65157;-74
2021/12/31 06:04:31;;;;;;;;;;;;;;;25.35;65.06;97642.46;617604;229;67089;-74
2021/12/31 06:06:59;;;;;;;;;;;;;;;25.35;65.84;97642.46;617776;229;67086;-74
2021/12/31 06:09:26;;;;;;;;;;;;;;;25.36;65.47;97644.85;617445;229;62874;-74
2021/12/31 06:11:54;;;;;;;;;;;;;;;25.36;65.79;97644.85;617667;229;64588;-73
2021/12/31 06:14:21;;;;;;;;;;;;;;;25.32;64.48;97649.21;617661;229;65752;-73
2021/12/31 06:16:49;;;;;;;;;;;;;;;25.34;65.12;97652.39;617674;229;62862;-73
2021/12/31 06:19:16;;;;;;;;;;;;;;;25.35;66.55;97637.08;617760;229;66714;-73
2021/12/31 06:21:46;;;;;;;;;;;;;;;25.34;65.57;97663.16;617673;229;66665;-74
2021/12/31 06:24:13;;;;;;;;;;;;;;;25.35;65.08;97664.78;617699;229;63011;-73
2021/12/31 06:26:41;;;;;;;;;;;;;;;25.38;65.09;97674.17;617714;229;64350;-74
2021/12/31 06:29:08;;;;;;;;;;;;;;;25.34;64.63;97684.68;617617;229;66897;-74
2021/12/31 06:31:37;;;;;;;;;;;;;;;25.35;64.86;97686.30;617715;229;64837;-73
2021/12/31 06:34:04;;;;;;;;;;;;;;;25.35;65.17;97683.61;617685;229;66788;-73
2021/12/31 06:36:32;;;;;;;;;;;;;;;25.36;65.92;97690.59;617599;229;66987;-73
2021/12/31 06:39:02;;;;;;;;;;;;;;;25.34;65.65;97695.44;617581;229;65973;-74
2021/12/31 06:41:28;;;;;;;;;;;;;;;25.32;66.21;97697.64;617626;227;67370;-74
2021/12/31 06:43:56;;;;;;;;;;;;;;;25.32;65.56;97694.95;617603;229;67791;-74
2021/12/31 06:46:24;;;;;;;;;;;;;;;25.33;65.88;97696.54;616843;229;65061;-74
2021/12/31 06:48:52;;;;;;;;;;;;;;;25.31;65.54;97701.39;616960;229;67384;-74
2021/12/31 06:51:19;;;;;;;;;;;;;;;25.33;66.28;97698.44;618169;229;66979;-73
2021/12/31 06:53:47;;;;;;;;;;;;;;;25.33;67.66;97703.81;619092;229;65166;-73
2021/12/31 06:56:14;;;;;;;;;;;;;;;25.33;67.16;97701.92;619532;229;67027;-73
2021/12/31 06:58:43;;;;;;;;;;;;;;;25.32;69.39;97691.43;619683;229;66931;-73
2021/12/31 07:01:11;;;;;;;;;;;;;;;25.32;65.86;97702.19;619597;229;62733;-73
2021/12/31 07:03:38;;;;;;;;;;;;;;;25.35;66.25;97704.34;618855;229;64874;-70
2021/12/31 07:06:06;;;;;;;;;;;;;;;25.30;65.32;97709.77;619506;229;64857;-71
2021/12/31 07:08:33;;;;;;;;;;;;;;;25.30;67.68;97713.25;619584;229;62786;-71
2021/12/31 07:11:01;;;;;;;;;;;;;;;25.28;66.53;97710.03;619504;229;67035;-71
2021/12/31 07:13:28;;;;;;;;;;;;;;;25.29;66.72;97703.59;619591;229;67017;-68
2021/12/31 07:15:56;;;;;;;;;;;;;;;25.28;62.87;97701.96;619520;229;64872;-67
2021/12/31 07:18:24;;;;;;;;;;;;;;;25.30;61.84;97705.18;619534;229;67054;-70
2021/12/31 07:20:52;;;;;;;;;;;;;;;25.31;63.25;97712.16;623519;226;66805;-70
2021/12/31 07:23:20;;;;;;;;;;;;;;;25.32;63.11;97712.95;626719;226;64977;-70
2021/12/31 07:25:48;;;;;;;;;;;;;;;25.32;62.77;97721.84;626605;226;65082;-70
2021/12/31 07:28:16;;;;;;;;;;;;;;;25.32;62.55;97716.47;626716;226;65253;-69
2021/12/31 07:30:44;;;;;;;;;;;;;;;25.32;61.82;97711.09;626706;226;65164;-69
2021/12/31 07:33:16;;;;;;;;;;;;;;;25.35;62.93;97715.11;626586;226;67350;-69
2021/12/31 07:35:43;;;;;;;;;;;;;;;25.34;64.71;97714.28;626647;226;67295;-66
2021/12/31 07:38:19;;;;;;;;;;;;;;;25.33;63.59;97709.99;626653;226;64922;-65
2021/12/31 07:40:41;;;;;;;;;;;;;;;25.34;63.98;97710.79;626428;225;64820;-69
2021/12/31 07:43:10;;;;;;;;;;;;;;;25.28;61.74;97709.23;626639;226;66969;-71
2021/12/31 07:45:37;;;;;;;;;;;;;;;25.31;64.40;97712.16;626523;226;64852;-70
2021/12/31 07:48:05;;;;;;;;;;;;;;;25.34;63.05;97700.83;626609;226;64764;-70
2021/12/31 07:50:34;;;;;;;;;;;;;;;25.38;63.25;97695.70;625992;226;65094;-70
2021/12/31 07:53:01;;;;;;;;;;;;;;;25.39;63.29;97714.23;624679;227;65094;-70
2021/12/31 07:55:29;;;;;;;;;;;;;;;25.40;62.03;97718.55;624634;227;67495;-70
2021/12/31 07:57:56;;;;;;;;;;;;;;;25.42;61.99;97724.43;624625;227;67056;-70
2021/12/31 08:00:24;;;;;;;;;;;;;;;25.43;65.28;97723.36;624605;227;64978;-69
2021/12/31 08:02:53;;;;;;;;;;;;;;;25.43;61.15;97720.67;624597;227;67196;-68
2021/12/31 08:05:20;;;;;;;;;;;;;;;25.42;61.75;97719.05;624611;227;67041;-68
2021/12/31 08:07:48;;;;;;;;;;;;;;;25.45;63.77;97712.30;624614;227;65033;-68
2021/12/31 08:10:15;;;;;;;;;;;;;;;25.43;61.20;97709.11;624718;227;67599;-69
2021/12/31 08:12:43;;;;;;;;;;;;;;;25.35;57.82;97707.83;624688;227;67062;-68
2021/12/31 08:15:10;;;;;;;;;;;;;;;25.37;59.81;97705.66;624685;227;64991;-71
2021/12/31 08:17:38;;;;;;;;;;;;;;;25.37;60.24;97694.08;624643;226;67459;-72
2021/12/31 08:20:06;;;;;;;;;;;;;;;25.25;58.13;97683.70;624737;227;66870;-72
2021/12/31 08:22:36;;;;;;;;;;;;;;;25.35;59.42;97680.92;624550;226;65157;-73
2021/12/31 08:25:04;;;;;;;;;;;;;;;25.42;59.45;97675.20;621135;227;67000;-70
2021/12/31 08:27:32;;;;;;;;;;;;;;;25.43;59.05;97669.55;624722;227;66914;-72
2021/12/31 08:29:59;;;;;;;;;;;;;;;25.45;58.38;97664.69;624709;227;64951;-72
2021/12/31 08:32:26;;;;;;;;;;;;;;;25.49;59.06;97650.66;624735;227;67043;-70
2021/12/31 08:34:54;;;;;;;;;;;;;;;25.51;59.28;97645.78;624710;227;66675;-70
2021/12/31 08:37:21;;;;;;;;;;;;;;;25.53;58.79;97643.61;624614;227;65198;-65
2021/12/31 08:39:49;;;;;;;;;;;;;;;25.50;58.24;97639.59;624694;227;67311;-66
2021/12/31 08:42:16;;;;;;;;;;;;;;;25.51;58.92;97632.32;624754;227;67340;-66
2021/12/31 08:44:46;;;;;;;;;;;;;;;25.52;58.40;97631.25;624571;226;42143;-66
2021/12/31 08:47:13;;;;;;;;;;;;;;;25.54;59.38;97629.09;624201;227;67009;-66
2021/12/31 08:49:41;;;;;;;;;;;;;;;25.55;59.40;97620.70;623837;227;66720;-66
2021/12/31 08:52:09;;;;;;;;;;;;;;;25.57;59.00;97631.20;623887;226;64896;-69
2021/12/31 08:54:37;;;;;;;;;;;;;;;25.57;58.53;97628.51;624082;227;67212;-71
2021/12/31 08:57:05;;;;;;;;;;;;;;;25.59;58.09;97618.23;624047;227;66748;-70
2021/12/31 08:59:32;;;;;;;;;;;;;;;25.59;58.31;97624.45;624374;227;64928;-70
2021/12/31 09:02:00;;;;;;;;;;;;;;;25.61;58.43;97610.69;624631;227;66603;-70
2021/12/31 09:04:27;;;;;;;;;;;;;;;25.62;59.34;97615.00;624562;227;66731;-70
2021/12/31 09:06:55;;;;;;;;;;;;;;;25.64;59.01;97600.14;624609;227;64866;-70
2021/12/31 09:09:22;;;;;;;;;;;;;;;25.66;58.74;97606.05;624679;227;67381;-70
2021/12/31 09:11:50;;;;;;;;;;;;;;;25.67;59.83;97604.97;624632;227;66918;-70
2021/12/31 09:14:20;;;;;;;;;;;;;;;25.68;59.88;97603.08;624670;227;65820;-70
2021/12/31 09:16:47;;;;;;;;;;;;;;;25.68;59.61;97593.11;624678;227;67274;-70
2021/12/31 09:19:14;;;;;;;;;;;;;;;25.71;59.40;97590.94;624591;227;66894;-70
2021/12/31 09:21:42;;;;;;;;;;;;;;;25.72;59.41;97597.91;624697;227;65008;-70
2021/12/31 09:24:11;;;;;;;;;;;;;;;25.73;59.74;97597.64;624721;227;67172;-66
2021/12/31 09:26:38;;;;;;;;;;;;;;;25.74;59.73;97595.73;624643;227;67032;-72
2021/12/31 09:29:06;;;;;;;;;;;;;;;25.74;59.73;97595.73;624722;227;65047;-71
2021/12/31 09:31:33;;;;;;;;;;;;;;;25.75;59.69;97592.74;624617;227;67202;-69
2021/12/31 09:34:01;;;;;;;;;;;;;;;25.75;58.77;97590.05;624709;227;66907;-71
2021/12/31 09:36:30;;;;;;;;;;;;;;;25.75;58.55;97576.59;624682;227;64878;-71
2021/12/31 09:38:57;;;;;;;;;;;;;;;25.78;58.22;97576.04;624746;227;67183;-70
2021/12/31 09:41:25;;;;;;;;;;;;;;;25.77;58.52;97579.80;624657;227;67026;-69
2021/12/31 09:43:53;;;;;;;;;;;;;;;25.78;58.29;97570.66;624744;227;65024;-71
2021/12/31 09:46:22;;;;;;;;;;;;;;;25.80;57.99;97571.14;624792;227;67200;-71
2021/12/31 09:48:50;;;;;;;;;;;;;;;25.80;58.91;97563.07;624775;227;67007;-72
2021/12/31 09:51:19;;;;;;;;;;;;;;;25.81;58.00;97558.48;625403;226;65012;-73
2021/12/31 09:53:46;;;;;;;;;;;;;;;25.81;58.95;97556.61;625880;226;67194;-73
2021/12/31 09:56:14;;;;;;;;;;;;;;;25.83;59.33;97548.23;625701;226;67273;-72
2021/12/31 09:58:41;;;;;;;;;;;;;;;25.84;59.32;97550.68;625740;226;62908;-72
2021/12/31 10:01:09;;;;;;;;;;;;;;;25.84;60.16;97547.98;625952;226;64951;-74
2021/12/31 10:03:38;;;;;;;;;;;;;;;25.85;59.88;97541.50;625769;226;67045;-69
2021/12/31 10:06:09;;;;;;;;;;;;;;;25.85;59.72;97532.63;625812;226;65133;-69
2021/12/31 10:08:47;;;;;;;;;;;;;;;25.86;59.74;97529.66;625800;226;67372;-68
2021/12/31 10:11:24;;;;;;;;;;;;;;;25.89;59.89;97530.94;625829;226;66911;-68
2021/12/31 10:13:56;;;;;;;;;;;;;;;25.88;59.97;97530.14;625244;226;62986;-69
2021/12/31 10:16:29;;;;;;;;;;;;;;;25.92;60.06;97538.46;625792;226;66625;-61
2021/12/31 10:19:07;;;;;;;;;;;;;;;25.90;60.10;97538.73;625897;226;66804;-66
2021/12/31 10:21:41;;;;;;;;;;;;;;;25.89;60.00;97537.15;625260;226;62902;-69
2021/12/31 10:24:19;;;;;;;;;;;;;;;25.89;60.00;97534.45;624910;226;69406;-73
2021/12/31 10:26:47;;;;;;;;;;;;;;;25.91;59.98;97537.64;625027;226;66831;-72
2021/12/31 10:29:14;;;;;;;;;;;;;;;25.91;60.29;97537.64;625015;226;66461;-66
2021/12/31 10:31:43;;;;;;;;;;;;;;;25.93;59.97;97539.26;625165;226;66761;-66
2021/12/31 10:34:30;;;;;;;;;;;;;;;25.92;60.12;97533.08;625233;226;64703;-67
2021/12/31 10:37:00;;;;;;;;;;;;;;;25.94;60.19;97530.08;625455;226;62698;-67
2021/12/31 10:39:28;;;;;;;;;;;;;;;25.94;59.95;97533.56;625513;225;67324;-67
2021/12/31 10:42:00;;;;;;;;;;;;;;;25.96;60.07;97535.98;625762;226;64959;-66
2021/12/31 10:44:45;;;;;;;;;;;;;;;25.93;60.44;97529.28;625757;226;65331;-66
2021/12/31 10:47:14;;;;;;;;;;;;;;;25.96;60.32;97511.75;625868;226;64978;-66
2021/12/31 10:49:43;;;;;;;;;;;;;;;25.96;59.96;97517.92;625849;226;67014;-66
2021/12/31 10:52:16;;;;;;;;;;;;;;;25.97;60.75;97518.72;625900;226;65020;-66
2021/12/31 10:54:58;;;;;;;;;;;;;;;25.97;60.50;97514.13;626221;225;67052;-66
2021/12/31 10:57:18;;;;;;;;;;;;;;;25.97;60.30;97508.74;626500;225;67089;-66
2021/12/31 10:59:45;;;;;;;;;;;;;;;25.99;60.82;97511.16;626214;225;64965;-66
2021/12/31 11:02:14;;;;;;;;;;;;;;;25.98;60.40;97502.28;626678;226;67137;-66
2021/12/31 11:04:41;;;;;;;;;;;;;;;25.99;61.00;97495.00;626598;226;66805;-66
2021/12/31 11:07:10;;;;;;;;;;;;;;;25.99;60.26;97487.72;626706;226;64887;-65
2021/12/31 11:09:38;;;;;;;;;;;;;;;25.98;60.94;97494.20;626638;226;64810;-65
2021/12/31 11:12:06;;;;;;;;;;;;;;;25.99;60.76;97492.30;626696;226;65216;-66
2021/12/31 11:14:34;;;;;;;;;;;;;;;25.98;60.63;97478.05;626567;226;65313;-67
2021/12/31 11:17:02;;;;;;;;;;;;;;;25.98;61.37;97480.73;626668;226;67234;-65
2021/12/31 11:19:30;;;;;;;;;;;;;;;25.99;61.53;97482.33;626581;226;66893;-65
2021/12/31 11:21:58;;;;;;;;;;;;;;;26.00;61.51;97483.13;626603;226;65001;-65
2021/12/31 11:24:30;;;;;;;;;;;;;;;26.00;61.54;97472.35;626659;226;67234;-65
2021/12/31 11:26:59;;;;;;;;;;;;;;;26.00;61.49;97475.87;626725;226;64529;-66
2021/12/31 11:29:36;;;;;;;;;;;;;;;25.99;61.83;97465.38;626804;225;48129;-66
2021/12/31 11:32:06;;;;;;;;;;;;;;;25.99;62.10;97468.86;626762;226;64372;-62
2021/12/31 11:34:35;;;;;;;;;;;;;;;25.98;60.91;97469.97;626580;226;66798;-63
2021/12/31 11:37:02;;;;;;;;;;;;;;;26.00;61.57;97467.79;626686;226;64876;-62
2021/12/31 11:39:32;;;;;;;;;;;;;;;26.00;61.71;97464.27;626737;226;66892;-63
2021/12/31 11:42:02;;;;;;;;;;;;;;;25.99;61.08;97471.56;626656;226;66797;-67
2021/12/31 11:44:30;;;;;;;;;;;;;;;26.00;61.87;97464.27;626747;226;65054;-65
2021/12/31 11:47:11;;;;;;;;;;;;;;;25.99;61.18;97459.99;626651;226;67477;-64
2021/12/31 11:49:38;;;;;;;;;;;;;;;25.98;61.37;97458.41;626618;226;67568;-66
2021/12/31 11:52:08;;;;;;;;;;;;;;;26.00;61.42;97464.27;625764;226;64864;-63
2021/12/31 11:54:37;;;;;;;;;;;;;;;25.99;61.46;97454.61;625960;226;66896;-64
2021/12/31 11:57:06;;;;;;;;;;;;;;;26.00;61.97;97456.19;625840;226;66803;-64
2021/12/31 11:59:50;;;;;;;;;;;;;;;25.99;61.69;97457.30;625837;226;65069;-63
2021/12/31 12:02:20;;;;;;;;;;;;;;;25.99;61.91;97458.09;625843;226;66796;-64
2021/12/31 12:04:49;;;;;;;;;;;;;;;25.99;61.63;97457.30;625667;226;63809;-64
2021/12/31 12:07:33;;;;;;;;;;;;;;;25.97;62.06;97459.47;624856;226;62789;-64
2021/12/31 12:10:03;;;;;;;;;;;;;;;25.99;61.55;97449.22;625850;226;64752;-63
2021/12/31 12:12:32;;;;;;;;;;;;;;;25.96;61.17;97461.38;625769;226;64652;-63
2021/12/31 12:15:00;;;;;;;;;;;;;;;25.97;61.37;97462.17;625879;226;62696;-63
2021/12/31 12:17:32;;;;;;;;;;;;;;;25.96;61.81;97464.06;625742;226;64575;-59
2021/12/31 12:20:04;;;;;;;;;;;;;;;25.98;62.18;97463.79;625896;226;66464;-67
2021/12/31 12:22:50;;;;;;;;;;;;;;;25.93;61.56;97463.86;625858;226;65076;-67
2021/12/31 12:25:13;;;;;;;;;;;;;;;25.91;60.76;97456.86;625474;226;66953;-67
2021/12/31 12:27:41;;;;;;;;;;;;;;;25.89;60.46;97460.93;625776;226;66947;-67
2021/12/31 12:30:11;;;;;;;;;;;;;;;25.89;60.32;97456.37;625884;226;65159;-67
2021/12/31 12:35:14;;;;;;;;;;;;;;;25.91;59.63;97456.86;625764;226;66810;-67
2021/12/31 12:37:42;;;;;;;;;;;;;;;25.89;60.62;97453.67;625653;226;65037;-61
2021/12/31 12:40:11;;;;;;;;;;;;;;;25.86;60.62;97454.27;625824;226;66489;-66
2021/12/31 12:42:40;;;;;;;;;;;;;;;25.88;60.46;97460.14;625845;226;68278;-64
2021/12/31 12:45:08;;;;;;;;;;;;;;;25.87;59.76;97455.06;625559;226;64989;-66
2021/12/31 12:47:35;;;;;;;;;;;;;;;25.88;59.45;97452.06;625809;226;66667;-65
2021/12/31 12:50:07;;;;;;;;;;;;;;;25.91;59.18;97456.06;625702;226;66632;-59
2021/12/31 12:52:34;;;;;;;;;;;;;;;25.90;59.89;97463.34;624650;226;65037;-64
2021/12/31 12:55:09;;;;;;;;;;;;;;;25.93;60.71;97469.25;624745;227;67212;-66
2021/12/31 12:57:38;;;;;;;;;;;;;;;25.90;60.31;97474.11;624677;226;66911;-67
2021/12/31 13:00:07;;;;;;;;;;;;;;;25.90;60.27;97462.55;624658;227;65010;-67
2021/12/31 13:02:42;;;;;;;;;;;;;;;25.88;59.21;97462.83;624689;227;66939;-65